Elbella — 9HA2358 — position and weather

sailwx.info

Track history (hours):
 
Tides and Currents Weather Stations Pressure Air Temp Water Temp Dewpoint Dewpoint Depression Visibility Wind Speed Wind Dir Waves Ship Positions

Elbella

Last reported at 2015-May-20 07:06 UTC. Time now 2015-May-22 10:04 UTC.
Position N 36°08' E 026°21'.

Length 176 m; draft 9.3 m.

Type: Ship (hazmat cat A). MMSI: 248422000.

Date/timePositionNaut miles runAvg speedWind from/ knotsBaromVisibWave heightAir tempDewpointWater temp
2015-May-20 07:06N 36°08' E 026°21'1017.7
2015-May-20 06:33N 36°06' E 026°10'1717.3
2015-May-20 05:33N 36°04' E 025°48'1817.3
2015-May-20 04:32N 36°01' E 025°27'1717.5
2015-May-20 03:33N 35°58' E 025°06'2017.7
2015-May-20 02:25N 35°55' E 024°41'48417.3
2015-May-18 22:25N 35°47' E 014°44'9 3.2
2015-May-18 19:24N 35°49' E 014°32'0 0.0
2015-May-18 04:28N 35°49' E 014°33'0 0.0
2015-May-17 14:19N 35°49' E 014°33'1 1.6
2015-May-17 13:33N 35°49' E 014°34'1 1.1
2015-May-17 12:33N 35°48' E 014°35'1 1.4
2015-May-17 11:33N 35°47' E 014°37'1 1.2
2015-May-17 10:33N 35°48' E 014°38'1 1.4
2015-May-17 09:33N 35°48' E 014°40'9 8.8
2015-May-17 08:33N 35°47' E 014°50'11516.5
2015-May-17 01:33N 35°47' E 017°13'2017.6
2015-May-17 00:26N 35°47' E 017°37'1517.4
2015-May-16 23:33N 35°47' E 017°56'22417.2
2015-May-16 10:32N 35°46' E 022°32'3416.9
2015-May-16 08:32N 35°46' E 023°14'1717.1
2015-May-16 07:33N 35°48' E 023°35'1716.8
2015-May-16 06:33N 35°50' E 023°55'1717.1
2015-May-16 05:32N 35°53' E 024°16'1717.1
2015-May-16 04:33N 35°55' E 024°37'1817.4
2015-May-16 03:33N 35°58' E 024°59'1717.5
2015-May-16 02:33N 36°01' E 025°20'1817.6
2015-May-16 01:33N 36°03' E 025°41'1817.7
2015-May-16 00:33N 36°06' E 026°03'1717.4
2015-May-15 23:33N 36°08' E 026°24'1717.2
2015-May-15 22:33N 36°05' E 026°45'1717.2
2015-May-15 21:33N 36°01' E 027°06'1717.4
2015-May-15 20:33N 35°55' E 027°26'1817.2
2015-May-15 19:31N 35°48' E 027°46'  
2015-May-11 15:34N 34°17' E 035°13'2117.2
2015-May-11 14:22N 33°57' E 035°13'  
Track history (hours):
 
Tides and Currents Weather Stations Pressure Air Temp Water Temp Dewpoint Dewpoint Depression Visibility Wind Speed Wind Dir Waves Ship Positions

Elbella

Last reported at 2015-May-20 07:06 UTC. Time now 2015-May-22 10:04 UTC.
Position N 36°08' E 026°21'.

Length 176 m; draft 9.3 m.

Type: Ship (hazmat cat A). MMSI: 248422000.

Date/timePositionNaut miles runAvg speedWind from/ knotsBaromVisibWave heightAir tempDewpointWater temp
2015-May-20 07:06N 36°08' E 026°21'1017.7
2015-May-20 06:33N 36°06' E 026°10'1717.3
2015-May-20 05:33N 36°04' E 025°48'1817.3
2015-May-20 04:32N 36°01' E 025°27'1717.5
2015-May-20 03:33N 35°58' E 025°06'2017.7
2015-May-20 02:25N 35°55' E 024°41'48417.3
2015-May-18 22:25N 35°47' E 014°44'9 3.2
2015-May-18 19:24N 35°49' E 014°32'0 0.0
2015-May-18 04:28N 35°49' E 014°33'0 0.0
2015-May-17 14:19N 35°49' E 014°33'1 1.6
2015-May-17 13:33N 35°49' E 014°34'1 1.1
2015-May-17 12:33N 35°48' E 014°35'1 1.4
2015-May-17 11:33N 35°47' E 014°37'1 1.2
2015-May-17 10:33N 35°48' E 014°38'1 1.4
2015-May-17 09:33N 35°48' E 014°40'9 8.8
2015-May-17 08:33N 35°47' E 014°50'11516.5
2015-May-17 01:33N 35°47' E 017°13'2017.6
2015-May-17 00:26N 35°47' E 017°37'1517.4
2015-May-16 23:33N 35°47' E 017°56'22417.2
2015-May-16 10:32N 35°46' E 022°32'3416.9
2015-May-16 08:32N 35°46' E 023°14'1717.1
2015-May-16 07:33N 35°48' E 023°35'1716.8
2015-May-16 06:33N 35°50' E 023°55'1717.1
2015-May-16 05:32N 35°53' E 024°16'1717.1
2015-May-16 04:33N 35°55' E 024°37'1817.4
2015-May-16 03:33N 35°58' E 024°59'1717.5
2015-May-16 02:33N 36°01' E 025°20'1817.6
2015-May-16 01:33N 36°03' E 025°41'1817.7
2015-May-16 00:33N 36°06' E 026°03'1717.4
2015-May-15 23:33N 36°08' E 026°24'1717.2
2015-May-15 22:33N 36°05' E 026°45'1717.2
2015-May-15 21:33N 36°01' E 027°06'1717.4
2015-May-15 20:33N 35°55' E 027°26'1817.2
2015-May-15 19:31N 35°48' E 027°46'  
2015-May-11 15:34N 34°17' E 035°13'2117.2
2015-May-11 14:22N 33°57' E 035°13'  

Dump ship's entire track history